Anzeige # 
Titel Autor Zugriffe
PPL (A) Pilot Geschrieben von Super User 190
Unser neues Flugzeug Geschrieben von Super User 1016
Weihnachten Geschrieben von Super User 906
PPL (A) Pilot Geschrieben von Super User 1262

Unterkategorien

Flugwetter Augsburg

[source: ADDS]
METAR
EDMA 190120Z AUTO VRB02KT 9999 // FEW028/// SCT047/// OVC057/// 11/11 Q1014 =
TAF EDMA 181700Z 1818/1903 27006KT CAVOK BECMG 1818/1820 19004KT
TAF
TAF EDMA 181700Z 1818/1903 27006KT CAVOK BECMG 1818/1820 19004KT =
Cookies erleichtern die Bereitstellung unserer Dienste. Mit der Nutzung unserer Dienste erklären Sie sich damit einverstanden, dass wir Cookies verwenden.
Weitere Informationen Ok